createdAt,value
2018-05-14T00:00:49.857Z,19.7
2018-05-14T00:02:50.133Z,19.7
2018-05-14T00:04:49.693Z,18.7
2018-05-14T00:06:49.925Z,18.9
2018-05-14T00:08:50.148Z,18.3
2018-05-14T00:10:50.268Z,18.9
2018-05-14T00:12:50.459Z,18.9
2018-05-14T00:14:49.618Z,19.0
2018-05-14T00:16:49.914Z,18.5
2018-05-14T00:18:50.107Z,22.4
2018-05-14T00:20:50.259Z,22.4
2018-05-14T00:22:50.432Z,19.0
2018-05-14T00:24:49.565Z,19.2
2018-05-14T00:26:49.793Z,21.1
2018-05-14T00:28:50.005Z,20.4
2018-05-14T00:30:50.224Z,20.4
2018-05-14T00:32:50.422Z,20.4
2018-05-14T00:34:49.749Z,24.0
2018-05-14T00:36:50.064Z,22.9
2018-05-14T00:38:50.314Z,22.9
2018-05-14T00:40:50.465Z,20.9
2018-05-14T00:42:49.681Z,21.2
2018-05-14T00:44:49.827Z,22.8
2018-05-14T00:46:50.039Z,21.3
2018-05-14T00:48:50.185Z,21.3
2018-05-14T00:50:50.346Z,19.7
2018-05-14T00:52:50.465Z,19.7
2018-05-14T00:54:49.642Z,18.2
2018-05-14T00:56:49.955Z,15.8
2018-05-14T00:58:50.098Z,15.4
2018-05-14T01:00:50.313Z,18.5
2018-05-14T01:02:50.502Z,18.5
2018-05-14T01:04:49.848Z,15.6
2018-05-14T01:06:50.131Z,17.7
2018-05-14T01:08:50.225Z,15.5
2018-05-14T01:10:50.412Z,15.5
2018-05-14T01:12:49.670Z,16.0
2018-05-14T01:14:49.781Z,15.8
2018-05-14T01:16:49.941Z,16.5
2018-05-14T01:18:50.036Z,16.5
2018-05-14T01:20:50.136Z,16.5
2018-05-14T01:22:50.242Z,17.4
2018-05-14T01:24:50.418Z,16.5
2018-05-14T01:26:49.795Z,18.0
2018-05-14T01:28:49.890Z,17.2
2018-05-14T01:30:50.062Z,17.2
2018-05-14T01:32:50.152Z,19.1
2018-05-14T01:34:49.654Z,18.8
2018-05-14T01:36:49.865Z,19.2
2018-05-14T01:38:49.930Z,19.2
2018-05-14T01:40:50.059Z,17.6
2018-05-14T01:42:50.244Z,17.9
2018-05-14T01:44:50.511Z,17.8
2018-05-14T01:46:49.765Z,17.8
2018-05-14T01:48:49.897Z,18.2
2018-05-14T01:50:50.132Z,18.1
2018-05-14T01:52:50.276Z,19.1
2018-05-14T01:54:49.574Z,19.1
2018-05-14T01:56:49.840Z,18.8
2018-05-14T01:58:49.977Z,18.8
2018-05-14T02:00:50.156Z,18.9
2018-05-14T02:02:50.264Z,19.3
2018-05-14T02:04:49.628Z,19.3
2018-05-14T02:06:49.994Z,19.6
2018-05-14T02:08:50.252Z,19.7
2018-05-14T02:10:50.409Z,20.3
2018-05-14T02:12:49.607Z,21.5
2018-05-14T02:14:49.721Z,20.5
2018-05-14T02:16:49.965Z,23.4
2018-05-14T02:18:50.156Z,23.4
2018-05-14T02:20:50.335Z,21.2
2018-05-14T02:22:49.540Z,21.2
2018-05-14T02:24:49.659Z,21.2
2018-05-14T02:26:49.983Z,22.8
2018-05-14T02:28:50.174Z,22.9
2018-05-14T02:30:50.294Z,22.6
2018-05-14T02:32:50.453Z,22.6
2018-05-14T02:34:49.737Z,23.6
2018-05-14T02:36:50.030Z,23.1
2018-05-14T02:38:50.154Z,24.4
2018-05-14T02:40:50.308Z,25.4
2018-05-14T02:42:50.436Z,25.4
2018-05-14T02:44:49.559Z,24.7
2018-05-14T02:46:49.768Z,24.7
2018-05-14T02:48:49.938Z,27.5
2018-05-14T02:50:50.090Z,26.2
2018-05-14T02:52:50.233Z,26.2
2018-05-14T02:54:50.364Z,28.5
2018-05-14T02:56:49.698Z,28.5
2018-05-14T02:58:49.876Z,27.8
2018-05-14T03:00:50.088Z,31.0
2018-05-14T03:02:50.227Z,31.0
2018-05-14T03:04:49.670Z,33.3
2018-05-14T03:06:50.189Z,33.3
2018-05-14T03:08:50.303Z,35.7
2018-05-14T03:10:50.424Z,34.6
2018-05-14T03:12:49.601Z,36.3
2018-05-14T03:14:49.746Z,36.4
2018-05-14T03:16:50.001Z,36.4
2018-05-14T03:18:50.178Z,34.1
2018-05-14T03:20:50.356Z,36.5
2018-05-14T03:22:50.524Z,33.1
2018-05-14T03:24:49.672Z,33.1
2018-05-14T03:26:49.893Z,33.8
2018-05-14T03:28:49.992Z,39.6
2018-05-14T03:30:50.191Z,39.6
2018-05-14T03:32:50.282Z,40.9
2018-05-14T03:34:49.761Z,40.9
2018-05-14T03:36:50.100Z,38.1
2018-05-14T03:38:50.176Z,33.3
2018-05-14T03:40:50.357Z,33.5
2018-05-14T03:42:50.461Z,33.5
2018-05-14T03:44:49.574Z,38.1
2018-05-14T03:46:49.750Z,33.0
2018-05-14T03:48:49.886Z,32.6
2018-05-14T03:50:50.023Z,32.6
2018-05-14T03:52:50.154Z,34.4
2018-05-14T03:54:50.328Z,36.3
2018-05-14T03:56:49.739Z,36.5
2018-05-14T03:58:49.854Z,37.9
2018-05-14T04:00:50.064Z,37.9
2018-05-14T04:02:49.762Z,38.2
2018-05-14T04:04:49.732Z,35.8
2018-05-14T04:06:50.492Z,41.2
2018-05-14T04:08:49.599Z,41.2
2018-05-14T04:10:49.775Z,41.2
2018-05-14T04:12:49.949Z,44.5
2018-05-14T04:14:50.159Z,44.6
2018-05-14T04:16:50.460Z,38.9
2018-05-14T04:18:49.661Z,39.1
2018-05-14T04:20:49.764Z,39.1
2018-05-14T04:22:49.922Z,43.0
2018-05-14T04:24:50.038Z,38.8
2018-05-14T04:26:49.851Z,39.6
2018-05-14T04:28:49.996Z,39.6
2018-05-14T04:30:50.179Z,33.6
2018-05-14T04:32:50.368Z,33.6
2018-05-14T04:34:49.970Z,32.4
2018-05-14T04:36:50.236Z,34.0
2018-05-14T04:38:50.354Z,33.4
2018-05-14T04:40:49.559Z,33.4
2018-05-14T04:42:49.756Z,32.1
2018-05-14T04:44:49.855Z,30.5
2018-05-14T04:46:50.238Z,29.2
2018-05-14T04:48:50.325Z,29.2
2018-05-14T04:50:50.519Z,29.6
2018-05-14T04:52:49.658Z,29.0
2018-05-14T04:54:49.860Z,29.4
2018-05-14T04:56:50.119Z,29.4
2018-05-14T04:58:50.193Z,29.4
2018-05-14T05:00:50.408Z,31.7
2018-05-14T05:02:49.546Z,31.7
2018-05-14T05:04:49.822Z,31.7
2018-05-14T05:06:50.213Z,27.7
2018-05-14T05:08:50.364Z,26.7
2018-05-14T05:10:50.530Z,26.7
2018-05-14T05:12:49.635Z,22.8
2018-05-14T05:14:49.806Z,20.8
2018-05-14T05:16:50.046Z,20.8
2018-05-14T05:18:50.172Z,22.1
2018-05-14T05:20:50.309Z,22.1
2018-05-14T05:22:50.673Z,22.7
2018-05-14T05:24:49.958Z,22.7
2018-05-14T05:26:50.232Z,19.7
2018-05-14T05:28:50.347Z,18.7
2018-05-14T05:30:50.530Z,18.7
2018-05-14T05:32:49.638Z,18.2
2018-05-14T05:34:50.021Z,18.6
2018-05-14T05:36:49.872Z,13.8
2018-05-14T05:38:50.083Z,15.2
2018-05-14T05:40:50.232Z,15.2
2018-05-14T05:42:50.375Z,14.5
2018-05-14T05:44:50.490Z,15.1
2018-05-14T05:46:49.784Z,14.5
2018-05-14T05:48:49.968Z,14.5
2018-05-14T05:50:50.071Z,15.3
2018-05-14T05:52:50.185Z,13.5
2018-05-14T05:54:50.357Z,13.1
2018-05-14T05:56:49.645Z,13.0
2018-05-14T05:58:49.807Z,13.0
2018-05-14T06:00:49.939Z,12.9
2018-05-14T06:02:50.163Z,11.0
2018-05-14T06:04:50.447Z,11.6
2018-05-14T06:06:49.643Z,10.3
2018-05-14T06:08:49.792Z,10.3
2018-05-14T06:10:49.998Z,11.8
2018-05-14T06:12:50.249Z,10.3
2018-05-14T06:14:50.383Z,10.3
2018-05-14T06:16:49.698Z,9.4
2018-05-14T06:18:49.833Z,9.4
2018-05-14T06:20:49.963Z,9.4
2018-05-14T06:22:50.070Z,9.4
2018-05-14T06:24:50.166Z,9.0
2018-05-14T06:26:50.495Z,8.7
2018-05-14T06:28:49.611Z,8.7
2018-05-14T06:30:49.710Z,8.5
2018-05-14T06:32:49.867Z,9.2
2018-05-14T06:34:50.243Z,8.4
2018-05-14T06:36:50.445Z,8.4
2018-05-14T06:38:49.624Z,8.2
2018-05-14T06:40:49.807Z,8.2
2018-05-14T06:42:49.911Z,8.3
2018-05-14T06:44:50.059Z,8.3
2018-05-14T06:46:50.281Z,7.7
2018-05-14T06:48:50.450Z,7.9
2018-05-14T06:50:49.565Z,7.6
2018-05-14T06:52:49.677Z,7.6
2018-05-14T06:54:50.119Z,7.9
2018-05-14T06:56:50.371Z,7.9
2018-05-14T06:58:50.520Z,7.9
2018-05-14T07:00:49.671Z,7.1
2018-05-14T07:02:49.824Z,7.1
2018-05-14T07:04:50.233Z,7.7
2018-05-14T07:06:50.508Z,7.7
2018-05-14T07:08:49.709Z,7.5
2018-05-14T07:10:49.885Z,7.5
2018-05-14T07:12:50.040Z,7.4
2018-05-14T07:14:50.201Z,7.4
2018-05-14T07:16:50.432Z,7.6
2018-05-14T07:18:49.631Z,7.2
2018-05-14T07:20:49.706Z,7.2
2018-05-14T07:22:49.813Z,7.2
2018-05-14T07:24:50.232Z,7.8
2018-05-14T07:26:49.964Z,7.8
2018-05-14T07:28:50.343Z,7.4
2018-05-14T07:30:49.587Z,7.0
2018-05-14T07:32:49.687Z,7.1
2018-05-14T07:34:50.245Z,7.1
2018-05-14T07:36:50.454Z,7.0
2018-05-14T07:38:49.588Z,6.7
2018-05-14T07:40:50.280Z,7.0
2018-05-14T07:42:50.380Z,7.0
2018-05-14T07:44:50.517Z,6.8
2018-05-14T07:46:49.746Z,6.5
2018-05-14T07:48:50.106Z,6.8
2018-05-14T07:50:50.326Z,6.8
2018-05-14T07:52:50.525Z,6.6
2018-05-14T07:54:50.106Z,6.6
2018-05-14T07:56:50.329Z,6.6
2018-05-14T07:58:50.542Z,6.3
2018-05-14T08:00:49.667Z,6.3
2018-05-14T08:02:49.826Z,6.5
2018-05-14T08:04:50.297Z,6.5
2018-05-14T08:06:50.528Z,5.6
2018-05-14T08:08:49.708Z,5.7
2018-05-14T08:10:49.806Z,5.7
2018-05-14T08:12:49.983Z,5.8
2018-05-14T08:14:50.153Z,6.0
2018-05-14T08:16:50.411Z,5.2
2018-05-14T08:18:50.534Z,5.2
2018-05-14T08:20:49.851Z,5.4
2018-05-14T08:22:50.033Z,5.2
2018-05-14T08:24:50.140Z,5.2
2018-05-14T08:26:50.475Z,5.1
2018-05-14T08:28:49.574Z,5.2
2018-05-14T08:30:49.686Z,5.2
2018-05-14T08:32:49.789Z,5.2
2018-05-14T08:34:50.088Z,4.9
2018-05-14T08:36:50.344Z,5.7
2018-05-14T08:38:50.490Z,5.2
2018-05-14T08:40:49.591Z,5.3
2018-05-14T08:42:49.949Z,5.3
2018-05-14T08:44:50.195Z,5.3
2018-05-14T08:46:49.760Z,5.4
2018-05-14T08:48:50.035Z,5.4
2018-05-14T08:50:50.273Z,5.4
2018-05-14T08:52:50.424Z,5.3
2018-05-14T08:54:50.508Z,5.3
2018-05-14T08:56:49.741Z,5.6
2018-05-14T08:58:49.856Z,5.5
2018-05-14T09:00:50.040Z,5.3
2018-05-14T09:02:50.482Z,5.3
2018-05-14T09:04:49.874Z,5.4
2018-05-14T09:06:50.136Z,4.9
2018-05-14T09:08:50.317Z,5.0
2018-05-14T09:10:50.381Z,5.0
2018-05-14T09:12:49.555Z,5.1
2018-05-14T09:14:49.690Z,5.1
2018-05-14T09:16:49.944Z,5.0
2018-05-14T09:18:50.112Z,4.8
2018-05-14T09:20:50.277Z,4.8
2018-05-14T09:22:50.432Z,4.8
2018-05-14T09:24:49.539Z,4.9
2018-05-14T09:26:49.801Z,4.8
2018-05-14T09:28:49.973Z,4.8
2018-05-14T09:30:50.121Z,5.1
2018-05-14T09:32:50.360Z,4.7
2018-05-14T09:34:49.796Z,4.6
2018-05-14T09:36:50.348Z,4.6
2018-05-14T09:38:50.501Z,4.6
2018-05-14T09:40:49.598Z,4.4
2018-05-14T09:42:49.696Z,4.5
2018-05-14T09:44:49.805Z,4.4
2018-05-14T09:46:50.048Z,4.4
2018-05-14T09:48:50.230Z,4.2
2018-05-14T09:50:50.347Z,4.2
2018-05-14T09:52:50.502Z,4.3
2018-05-14T09:54:49.620Z,4.4
2018-05-14T09:56:49.794Z,4.4
2018-05-14T09:58:49.955Z,4.4
2018-05-14T10:00:50.097Z,4.0
2018-05-14T10:02:50.173Z,4.6
2018-05-14T10:04:50.392Z,4.1
2018-05-14T10:06:49.946Z,4.1
2018-05-14T10:08:50.066Z,4.3
2018-05-14T10:10:50.203Z,4.0
2018-05-14T10:12:50.371Z,4.0
2018-05-14T10:14:50.506Z,4.1
2018-05-14T10:16:49.716Z,4.1
2018-05-14T10:18:49.955Z,4.1
2018-05-14T10:20:49.670Z,4.2
2018-05-14T10:22:49.818Z,3.8
2018-05-14T10:24:49.942Z,3.8
2018-05-14T10:26:50.098Z,4.3
2018-05-14T10:28:50.235Z,4.3
2018-05-14T10:30:50.430Z,4.3
2018-05-14T10:32:49.553Z,4.3
2018-05-14T10:34:50.086Z,4.7
2018-05-14T10:36:50.305Z,4.7
2018-05-14T10:38:50.592Z,4.4
2018-05-14T10:40:49.965Z,4.3
2018-05-14T10:42:50.127Z,4.2
2018-05-14T10:44:50.397Z,4.2
2018-05-14T10:46:49.978Z,4.0
2018-05-14T10:48:49.912Z,3.8
2018-05-14T10:50:50.048Z,3.9
2018-05-14T10:52:50.419Z,3.5
2018-05-14T10:54:49.917Z,3.5
2018-05-14T10:56:50.165Z,3.9
2018-05-14T10:58:50.295Z,3.8
2018-05-14T11:00:50.402Z,3.7
2018-05-14T11:02:49.564Z,3.7
2018-05-14T11:04:49.921Z,3.8
2018-05-14T11:06:50.156Z,3.8
2018-05-14T11:08:50.299Z,3.6
2018-05-14T11:10:50.449Z,3.7
2018-05-14T11:12:49.624Z,3.6
2018-05-14T11:14:49.815Z,3.3
2018-05-14T11:16:50.055Z,3.3
2018-05-14T11:18:50.324Z,3.5
2018-05-14T11:20:49.943Z,3.5
2018-05-14T11:22:50.043Z,3.5
2018-05-14T11:24:50.171Z,3.3
2018-05-14T11:26:50.476Z,3.3
2018-05-14T11:28:49.609Z,3.3
2018-05-14T11:30:49.734Z,3.6
2018-05-14T11:32:49.892Z,3.3
2018-05-14T11:34:50.375Z,3.3
2018-05-14T11:36:49.632Z,3.6
2018-05-14T11:38:49.827Z,3.4
2018-05-14T11:40:49.933Z,3.6
2018-05-14T11:42:50.045Z,3.6
2018-05-14T11:44:50.157Z,3.6
2018-05-14T11:46:50.387Z,3.8
2018-05-14T11:48:49.648Z,3.6
2018-05-14T11:50:49.824Z,3.7
2018-05-14T11:52:50.244Z,3.7
2018-05-14T11:54:50.399Z,3.7
2018-05-14T11:56:49.805Z,3.6
2018-05-14T11:58:50.421Z,4.1
2018-05-14T12:00:49.542Z,4.1
2018-05-14T12:02:49.791Z,3.8
2018-05-14T12:04:50.522Z,4.1
2018-05-14T12:06:49.785Z,4.0
2018-05-14T12:08:49.954Z,3.7
2018-05-14T12:10:50.155Z,3.7
2018-05-14T12:12:50.255Z,4.0
2018-05-14T12:14:50.338Z,4.0
2018-05-14T12:16:49.581Z,4.1
2018-05-14T12:18:49.667Z,4.1
2018-05-14T12:20:49.735Z,4.1
2018-05-14T12:22:49.927Z,3.7
2018-05-14T12:24:50.046Z,3.7
2018-05-14T12:26:50.331Z,3.5
2018-05-14T12:28:50.465Z,3.0
2018-05-14T12:30:49.598Z,3.0
2018-05-14T12:32:49.751Z,3.0
2018-05-14T12:34:50.081Z,2.8
2018-05-14T12:36:50.368Z,2.9
2018-05-14T12:38:50.574Z,2.5
2018-05-14T12:40:49.694Z,3.0
2018-05-14T12:42:49.854Z,3.0
2018-05-14T12:44:49.962Z,2.5
2018-05-14T12:46:50.179Z,2.8
2018-05-14T12:48:50.295Z,3.0
2018-05-14T12:50:50.389Z,3.0
2018-05-14T12:52:49.580Z,3.1
2018-05-14T12:54:49.703Z,2.4
2018-05-14T12:56:50.152Z,2.8
2018-05-14T12:58:50.314Z,2.8
2018-05-14T13:00:50.396Z,3.0
2018-05-14T13:02:49.619Z,3.0
2018-05-14T13:04:50.105Z,2.9
2018-05-14T13:06:50.482Z,2.9
2018-05-14T13:08:49.686Z,2.9
2018-05-14T13:10:49.838Z,2.9
2018-05-14T13:12:49.988Z,2.9
2018-05-14T13:14:50.067Z,2.9
2018-05-14T13:16:50.348Z,2.9
2018-05-14T13:18:50.463Z,2.8
2018-05-14T13:20:49.584Z,2.8
2018-05-14T13:22:49.702Z,3.1
2018-05-14T13:24:49.782Z,3.0
2018-05-14T13:26:50.041Z,3.0
2018-05-14T13:28:50.119Z,2.7
2018-05-14T13:30:50.207Z,3.0
2018-05-14T13:32:50.420Z,2.7
2018-05-14T13:34:49.893Z,2.7
2018-05-14T13:36:50.143Z,2.8
2018-05-14T13:38:50.268Z,2.8
2018-05-14T13:40:50.455Z,2.8
2018-05-14T13:42:49.821Z,2.8
2018-05-14T13:44:50.118Z,2.7
2018-05-14T13:46:50.340Z,2.6
2018-05-14T13:48:50.428Z,2.6
2018-05-14T13:50:49.702Z,2.7
2018-05-14T13:52:50.174Z,2.8
2018-05-14T13:54:50.263Z,2.8
2018-05-14T13:56:49.544Z,2.5
2018-05-14T13:58:49.670Z,2.5
2018-05-14T14:00:49.744Z,2.7
2018-05-14T14:02:49.858Z,2.9
2018-05-14T14:04:50.348Z,3.0
2018-05-14T14:06:49.882Z,3.0
2018-05-14T14:08:49.994Z,2.7
2018-05-14T14:10:50.152Z,2.7
2018-05-14T14:12:50.301Z,2.8
2018-05-14T14:14:49.569Z,2.4
2018-05-14T14:16:49.700Z,2.4
2018-05-14T14:18:49.787Z,2.7
2018-05-14T14:20:49.941Z,2.6
2018-05-14T14:22:50.097Z,2.6
2018-05-14T14:24:50.253Z,2.6
2018-05-14T14:26:49.574Z,2.5
2018-05-14T14:28:49.791Z,2.5
2018-05-14T14:30:50.026Z,2.9
2018-05-14T14:32:50.135Z,2.4
2018-05-14T14:34:49.813Z,2.4
2018-05-14T14:36:50.237Z,2.5
2018-05-14T14:38:49.875Z,2.5
2018-05-14T14:40:50.182Z,2.8
2018-05-14T14:42:50.475Z,2.4
2018-05-14T14:44:49.723Z,2.4
2018-05-14T14:46:49.905Z,2.6
2018-05-14T14:48:50.013Z,2.6
2018-05-14T14:50:50.484Z,2.8
2018-05-14T14:52:49.891Z,2.7
2018-05-14T14:54:50.178Z,2.7
2018-05-14T14:56:49.970Z,2.9
2018-05-14T14:58:50.275Z,3.1
2018-05-14T15:00:50.427Z,3.2
2018-05-14T15:02:50.119Z,3.4
2018-05-14T15:04:49.695Z,3.5
2018-05-14T15:06:50.060Z,3.5
2018-05-14T15:08:50.331Z,3.5
2018-05-14T15:10:50.479Z,3.7
2018-05-14T15:12:49.576Z,3.6
2018-05-14T15:14:49.736Z,3.6
2018-05-14T15:16:49.596Z,3.6
2018-05-14T15:18:49.713Z,3.5
2018-05-14T15:20:49.839Z,3.5
2018-05-14T15:22:49.913Z,3.4
2018-05-14T15:24:50.010Z,3.6
2018-05-14T15:26:50.213Z,3.6
2018-05-14T15:28:50.391Z,3.7
2018-05-14T15:30:49.578Z,3.6
2018-05-14T15:32:49.716Z,3.9
2018-05-14T15:34:50.217Z,3.8
2018-05-14T15:36:49.617Z,3.8
2018-05-14T15:38:49.727Z,3.8
2018-05-14T15:40:49.875Z,3.7
2018-05-14T15:42:50.119Z,3.7
2018-05-14T15:44:50.284Z,3.7
2018-05-14T15:46:50.513Z,3.7
2018-05-14T15:48:49.677Z,3.7
2018-05-14T15:50:49.788Z,3.9
2018-05-14T15:52:49.936Z,3.9
2018-05-14T15:54:50.122Z,3.8
2018-05-14T15:56:50.371Z,3.8
2018-05-14T15:58:50.445Z,3.8
2018-05-14T16:00:49.601Z,3.8
2018-05-14T16:02:49.759Z,3.8
2018-05-14T16:04:50.054Z,3.8
2018-05-14T16:06:50.299Z,4.0
2018-05-14T16:08:50.467Z,3.5
2018-05-14T16:10:49.621Z,3.6
2018-05-14T16:12:49.798Z,3.6
2018-05-14T16:14:49.901Z,3.7
2018-05-14T16:16:50.150Z,3.7
2018-05-14T16:18:50.269Z,3.5
2018-05-14T16:20:50.765Z,3.5
2018-05-14T16:22:50.497Z,3.5
2018-05-14T16:24:49.642Z,3.7
2018-05-14T16:26:49.871Z,3.5
2018-05-14T16:28:49.967Z,3.5
2018-05-14T16:30:50.102Z,3.4
2018-05-14T16:32:50.238Z,3.4
2018-05-14T16:34:50.498Z,3.7
2018-05-14T16:36:49.852Z,3.8
2018-05-14T16:38:50.024Z,3.4
2018-05-14T16:40:50.224Z,3.4
2018-05-14T16:42:50.428Z,3.8
2018-05-14T16:44:49.517Z,3.5
2018-05-14T16:46:49.716Z,3.6
2018-05-14T16:48:49.855Z,3.6
2018-05-14T16:50:49.975Z,3.6
2018-05-14T16:52:50.061Z,3.4
2018-05-14T16:54:50.258Z,3.6
2018-05-14T16:56:49.569Z,3.4
2018-05-14T16:58:49.675Z,3.6
2018-05-14T17:00:49.819Z,3.5
2018-05-14T17:02:49.943Z,3.5
2018-05-14T17:04:50.264Z,3.7
2018-05-14T17:06:50.427Z,3.7
2018-05-14T17:08:49.573Z,3.7
2018-05-14T17:10:49.725Z,3.7
2018-05-14T17:12:49.829Z,4.0
2018-05-14T17:14:49.983Z,3.9
2018-05-14T17:16:50.394Z,4.2
2018-05-14T17:18:49.563Z,4.2
2018-05-14T17:20:49.737Z,4.2
2018-05-14T17:22:49.863Z,4.2
2018-05-14T17:24:50.003Z,4.2
2018-05-14T17:26:50.229Z,4.0
2018-05-14T17:28:50.322Z,4.0
2018-05-14T17:30:50.493Z,4.2
2018-05-14T17:32:49.641Z,4.1
2018-05-14T17:34:50.082Z,3.8
2018-05-14T17:36:50.323Z,3.8
2018-05-14T17:38:50.392Z,3.9
2018-05-14T17:40:49.551Z,3.9
2018-05-14T17:42:49.754Z,4.1
2018-05-14T17:44:49.889Z,4.0
2018-05-14T17:46:50.160Z,4.0
2018-05-14T17:48:50.491Z,4.0
2018-05-14T17:50:49.631Z,4.0
2018-05-14T17:52:49.815Z,4.0
2018-05-14T17:54:50.387Z,3.9
2018-05-14T17:56:49.716Z,4.2
2018-05-14T17:58:49.902Z,4.2
2018-05-14T18:00:50.104Z,4.1
2018-05-14T18:02:50.268Z,4.1
2018-05-14T18:04:49.621Z,4.0
2018-05-14T18:06:49.870Z,4.2
2018-05-14T18:08:50.046Z,4.2
2018-05-14T18:10:50.540Z,4.4
2018-05-14T18:12:49.594Z,4.9
2018-05-14T18:14:49.794Z,4.9
2018-05-14T18:16:50.149Z,4.9
2018-05-14T18:18:50.350Z,4.8
2018-05-14T18:20:50.483Z,4.5
2018-05-14T18:22:49.661Z,5.0
2018-05-14T18:24:49.795Z,5.2
2018-05-14T18:26:50.255Z,5.4
2018-05-14T18:28:49.699Z,5.4
2018-05-14T18:30:49.914Z,5.6
2018-05-14T18:32:50.018Z,5.5
2018-05-14T18:34:50.343Z,6.0
2018-05-14T18:36:49.644Z,6.0
2018-05-14T18:38:49.788Z,6.1
2018-05-14T18:40:50.033Z,6.3
2018-05-14T18:42:50.161Z,6.3
2018-05-14T18:44:50.250Z,6.9
2018-05-14T18:46:49.537Z,6.9
2018-05-14T18:48:49.644Z,7.0
2018-05-14T18:50:49.729Z,6.7
2018-05-14T18:52:49.974Z,6.7
2018-05-14T18:54:50.100Z,6.7
2018-05-14T18:56:50.337Z,6.0
2018-05-14T18:58:50.453Z,6.2
2018-05-14T19:00:49.587Z,6.2
2018-05-14T19:02:49.752Z,6.2
2018-05-14T19:04:50.031Z,6.2
2018-05-14T19:06:50.313Z,6.7
2018-05-14T19:08:50.552Z,6.1
2018-05-14T19:10:49.673Z,7.5
2018-05-14T19:12:49.834Z,8.2
2018-05-14T19:14:49.995Z,8.2
2018-05-14T19:16:50.294Z,8.4
2018-05-14T19:18:50.139Z,9.3
2018-05-14T19:20:50.310Z,8.3
2018-05-14T19:22:50.492Z,8.3
2018-05-14T19:24:49.670Z,9.1
2018-05-14T19:26:49.857Z,8.8
2018-05-14T19:28:49.973Z,9.4
2018-05-14T19:30:50.164Z,9.8
2018-05-14T19:32:50.317Z,9.8
2018-05-14T19:34:49.661Z,12.5
2018-05-14T19:36:49.846Z,12.5
2018-05-14T19:38:50.010Z,13.4
2018-05-14T19:40:50.221Z,12.3
2018-05-14T19:42:49.517Z,12.3
2018-05-14T19:44:49.674Z,9.6
2018-05-14T19:46:49.945Z,9.6
2018-05-14T19:48:50.068Z,10.5
2018-05-14T19:50:50.243Z,11.7
2018-05-14T19:52:49.678Z,11.7
2018-05-14T19:54:49.808Z,10.6
2018-05-14T19:56:50.096Z,12.0
2018-05-14T19:58:50.221Z,11.4
2018-05-14T20:00:50.391Z,11.3
2018-05-14T20:02:49.580Z,11.3
2018-05-14T20:04:49.865Z,11.3
2018-05-14T20:06:50.301Z,10.4
2018-05-14T20:08:49.923Z,10.3
2018-05-14T20:10:50.103Z,11.6
2018-05-14T20:12:50.446Z,10.5
2018-05-14T20:14:49.811Z,10.5
2018-05-14T20:16:50.075Z,10.1
2018-05-14T20:18:50.299Z,10.1
2018-05-14T20:20:50.511Z,10.6
2018-05-14T20:22:49.711Z,11.2
2018-05-14T20:24:49.867Z,10.5
2018-05-14T20:26:50.145Z,9.9
2018-05-14T20:28:50.280Z,9.4
2018-05-14T20:30:50.443Z,9.3
2018-05-14T20:32:49.705Z,9.3
2018-05-14T20:34:50.105Z,8.8
2018-05-14T20:36:50.336Z,8.7
2018-05-14T20:38:50.465Z,8.7
2018-05-14T20:40:49.637Z,8.7
2018-05-14T20:42:49.754Z,8.7
2018-05-14T20:44:49.940Z,8.2
2018-05-14T20:46:50.157Z,7.8
2018-05-14T20:48:50.254Z,8.5
2018-05-14T20:50:50.443Z,7.9
2018-05-14T20:52:49.575Z,7.9
2018-05-14T20:54:49.723Z,7.7
2018-05-14T20:56:50.023Z,7.4
2018-05-14T20:58:50.120Z,8.0
2018-05-14T21:00:50.324Z,7.9
2018-05-14T21:02:50.431Z,7.9
2018-05-14T21:04:49.975Z,7.9
2018-05-14T21:06:50.153Z,7.8
2018-05-14T21:08:50.326Z,7.8
2018-05-14T21:10:50.521Z,7.3
2018-05-14T21:12:49.614Z,7.6
2018-05-14T21:14:49.914Z,8.2
2018-05-14T21:16:49.944Z,8.5
2018-05-14T21:18:50.039Z,8.3
2018-05-14T21:20:50.172Z,8.3
2018-05-14T21:22:50.371Z,7.6
2018-05-14T21:24:50.478Z,8.2
2018-05-14T21:26:49.846Z,8.0
2018-05-14T21:28:50.053Z,9.0
2018-05-14T21:30:50.209Z,9.0
2018-05-14T21:32:50.368Z,8.8
2018-05-14T21:34:49.698Z,8.9
2018-05-14T21:36:49.953Z,8.9
2018-05-14T21:38:50.105Z,6.9
2018-05-14T21:40:50.278Z,6.9
2018-05-14T21:42:49.563Z,7.6
2018-05-14T21:44:49.834Z,7.0
2018-05-14T21:46:50.028Z,7.2
2018-05-14T21:48:50.148Z,7.2
2018-05-14T21:50:49.555Z,7.1
2018-05-14T21:52:49.770Z,7.7
2018-05-14T21:54:49.956Z,7.3
2018-05-14T21:56:50.259Z,7.2
2018-05-14T21:58:50.404Z,7.2
2018-05-14T22:00:49.552Z,7.6
2018-05-14T22:02:49.654Z,7.3
2018-05-14T22:04:50.114Z,7.3
2018-05-14T22:06:50.335Z,8.3
2018-05-14T22:08:50.510Z,8.3
2018-05-14T22:10:49.648Z,8.2
2018-05-14T22:12:49.732Z,8.3
2018-05-14T22:14:49.857Z,8.3
2018-05-14T22:16:50.056Z,6.4
2018-05-14T22:18:50.121Z,7.0
2018-05-14T22:20:50.301Z,7.1
2018-05-14T22:22:50.394Z,6.4
2018-05-14T22:24:49.681Z,7.0
2018-05-14T22:26:50.084Z,7.0
2018-05-14T22:28:50.328Z,6.9
2018-05-14T22:30:49.657Z,6.9
2018-05-14T22:32:49.983Z,7.4
2018-05-14T22:34:50.521Z,7.7
2018-05-14T22:36:49.873Z,7.7
2018-05-14T22:38:50.218Z,7.8
2018-05-14T22:40:49.545Z,7.9
2018-05-14T22:42:49.906Z,6.6
2018-05-14T22:44:50.433Z,6.6
2018-05-14T22:46:49.961Z,6.6
2018-05-14T22:48:50.117Z,6.8
2018-05-14T22:50:50.390Z,6.8
2018-05-14T22:52:49.717Z,6.8
2018-05-14T22:54:49.972Z,6.8
2018-05-14T22:56:50.313Z,6.6
2018-05-14T22:58:49.769Z,6.9
2018-05-14T23:00:50.083Z,6.9
2018-05-14T23:02:50.272Z,7.6
2018-05-14T23:04:49.662Z,7.6
2018-05-14T23:06:50.107Z,8.0
2018-05-14T23:08:50.435Z,7.4
2018-05-14T23:10:49.730Z,8.4
2018-05-14T23:12:49.987Z,7.6
2018-05-14T23:14:50.273Z,7.6
2018-05-14T23:16:50.482Z,6.7
2018-05-14T23:18:49.760Z,6.7
2018-05-14T23:20:50.082Z,7.0
2018-05-14T23:22:50.242Z,6.5
2018-05-14T23:24:49.566Z,6.5
2018-05-14T23:26:50.016Z,6.1
2018-05-14T23:28:50.353Z,6.3
2018-05-14T23:30:50.528Z,5.9
2018-05-14T23:32:49.873Z,5.9
2018-05-14T23:34:50.379Z,5.8
2018-05-14T23:36:49.758Z,5.8
2018-05-14T23:38:50.102Z,7.5
2018-05-14T23:40:50.425Z,6.8
2018-05-14T23:42:49.827Z,6.8
2018-05-14T23:44:50.141Z,6.4
2018-05-14T23:46:49.564Z,5.7
2018-05-14T23:48:49.959Z,6.5
2018-05-14T23:50:50.285Z,7.3
2018-05-14T23:52:49.574Z,7.3
2018-05-14T23:54:49.881Z,6.9
2018-05-14T23:56:50.316Z,6.7
2018-05-14T23:58:49.701Z,7.4
